To NAV CANADA Home Page Login to a new session Search on AWWS site Feedback and Comments Disclaimer Vers la page française équivalente Tips FAQ What's new on the site To the Forecasts and Observations / NOTAM section To "File a Flight Plan" website Publications and other links Update of the User's profile FIC Telephone Numbers My Weather Data Folder Route Weather Data Regional Weather Data Local Weather Data To the Forecasts and Observations / NOTAM section
Request Generated 04/20/2014 at 21:25:34 UTC . Weather information available at that time is displayed.

METAR/TAF

NATASHQUAN/QC    (show WxCam)

METAR CYNA 202100Z AUTO 27017G26KT 9SM CLR M00/M03 A3016 RMK MAX WND
27023KT AT 2038Z SLP213=
METAR CYNA 202000Z AUTO 27021G29KT 9SM CLR 00/M04 A3016 RMK MAX WND
27024KT AT 1935Z SLP215=
METAR CYNA 201900Z AUTO 27023G33KT 9SM CLR 00/M05 A3018 RMK MAX WND
27025KT AT 1858Z SLP220=

TAF CYNA 201938Z 2020/2108 26020G30KT P6SM SKC
BECMG 2020/2022 27012G22KT
BECMG 2100/2102 34007KT
FM210600 VRB03KT P6SM FEW150
RMK FCST BASED ON AUTO OBS. NXT FCST BY 210200Z=
Your time UTC time
Weather data provided by Environment Canada and NAV CANADA